sensor_id;sensor_type;location;lat;lon;timestamp;P1;durP1;ratioP1;P2;durP2;ratioP2
11386;SDS011;5748;53.102;8.456;2023-03-16T00:01:43;1.30;;;1.10;;
11386;SDS011;5748;53.102;8.456;2023-03-16T00:04:10;1.17;;;1.00;;
11386;SDS011;5748;53.102;8.456;2023-03-16T00:06:37;1.07;;;0.97;;
11386;SDS011;5748;53.102;8.456;2023-03-16T00:09:06;1.23;;;1.07;;
11386;SDS011;5748;53.102;8.456;2023-03-16T00:11:33;1.10;;;1.00;;
11386;SDS011;5748;53.102;8.456;2023-03-16T00:14:00;1.53;;;1.10;;
11386;SDS011;5748;53.102;8.456;2023-03-16T00:16:28;1.20;;;1.10;;
11386;SDS011;5748;53.102;8.456;2023-03-16T00:18:56;1.20;;;1.10;;
11386;SDS011;5748;53.102;8.456;2023-03-16T00:21:24;0.97;;;0.97;;
11386;SDS011;5748;53.102;8.456;2023-03-16T00:23:51;1.33;;;1.17;;
11386;SDS011;5748;53.102;8.456;2023-03-16T00:26:19;1.30;;;1.00;;
11386;SDS011;5748;53.102;8.456;2023-03-16T00:28:47;1.30;;;1.20;;
11386;SDS011;5748;53.102;8.456;2023-03-16T00:31:18;0.97;;;0.90;;
11386;SDS011;5748;53.102;8.456;2023-03-16T00:33:49;1.20;;;1.10;;
11386;SDS011;5748;53.102;8.456;2023-03-16T00:36:16;1.13;;;0.97;;
11386;SDS011;5748;53.102;8.456;2023-03-16T00:38:43;1.20;;;1.03;;
11386;SDS011;5748;53.102;8.456;2023-03-16T00:41:11;1.20;;;1.10;;
11386;SDS011;5748;53.102;8.456;2023-03-16T00:43:43;1.10;;;1.00;;
11386;SDS011;5748;53.102;8.456;2023-03-16T00:46:11;1.50;;;1.23;;
11386;SDS011;5748;53.102;8.456;2023-03-16T00:48:41;2.10;;;1.10;;
11386;SDS011;5748;53.102;8.456;2023-03-16T00:51:11;1.20;;;1.10;;
11386;SDS011;5748;53.102;8.456;2023-03-16T00:53:41;1.27;;;1.13;;
11386;SDS011;5748;53.102;8.456;2023-03-16T00:56:11;1.60;;;1.40;;
11386;SDS011;5748;53.102;8.456;2023-03-16T00:58:39;1.53;;;1.30;;
11386;SDS011;5748;53.102;8.456;2023-03-16T01:01:20;1.27;;;1.10;;
11386;SDS011;5748;53.102;8.456;2023-03-16T01:03:47;1.27;;;1.17;;
11386;SDS011;5748;53.102;8.456;2023-03-16T01:06:14;1.53;;;1.30;;
11386;SDS011;5748;53.102;8.456;2023-03-16T01:08:52;1.50;;;1.40;;
11386;SDS011;5748;53.102;8.456;2023-03-16T01:11:20;1.30;;;1.20;;
11386;SDS011;5748;53.102;8.456;2023-03-16T01:13:49;1.27;;;1.17;;
11386;SDS011;5748;53.102;8.456;2023-03-16T01:16:19;1.63;;;1.20;;
11386;SDS011;5748;53.102;8.456;2023-03-16T01:18:47;1.40;;;1.30;;
11386;SDS011;5748;53.102;8.456;2023-03-16T01:21:16;1.77;;;1.17;;
11386;SDS011;5748;53.102;8.456;2023-03-16T01:23:57;1.20;;;1.10;;
11386;SDS011;5748;53.102;8.456;2023-03-16T01:26:24;1.20;;;1.10;;
11386;SDS011;5748;53.102;8.456;2023-03-16T01:28:52;1.30;;;1.13;;
11386;SDS011;5748;53.102;8.456;2023-03-16T01:31:21;1.60;;;1.43;;
11386;SDS011;5748;53.102;8.456;2023-03-16T01:33:48;1.63;;;1.40;;
11386;SDS011;5748;53.102;8.456;2023-03-16T01:36:15;1.30;;;1.20;;
11386;SDS011;5748;53.102;8.456;2023-03-16T01:38:45;1.20;;;1.10;;
11386;SDS011;5748;53.102;8.456;2023-03-16T01:41:13;1.40;;;1.20;;
11386;SDS011;5748;53.102;8.456;2023-03-16T01:43:41;1.30;;;1.20;;
11386;SDS011;5748;53.102;8.456;2023-03-16T01:46:23;1.77;;;1.10;;
11386;SDS011;5748;53.102;8.456;2023-03-16T01:48:55;1.43;;;1.33;;
11386;SDS011;5748;53.102;8.456;2023-03-16T01:51:30;3.17;;;1.20;;
11386;SDS011;5748;53.102;8.456;2023-03-16T01:54:14;1.40;;;1.30;;
11386;SDS011;5748;53.102;8.456;2023-03-16T01:56:49;1.97;;;1.30;;
11386;SDS011;5748;53.102;8.456;2023-03-16T01:59:27;1.20;;;1.10;;
11386;SDS011;5748;53.102;8.456;2023-03-16T02:01:59;1.53;;;1.20;;
11386;SDS011;5748;53.102;8.456;2023-03-16T02:04:33;1.20;;;1.10;;
11386;SDS011;5748;53.102;8.456;2023-03-16T02:07:10;1.53;;;1.00;;
11386;SDS011;5748;53.102;8.456;2023-03-16T02:09:41;1.37;;;1.17;;
11386;SDS011;5748;53.102;8.456;2023-03-16T02:12:20;1.73;;;1.40;;
11386;SDS011;5748;53.102;8.456;2023-03-16T02:14:48;1.20;;;1.10;;
11386;SDS011;5748;53.102;8.456;2023-03-16T02:17:19;1.17;;;1.03;;
11386;SDS011;5748;53.102;8.456;2023-03-16T02:19:57;1.70;;;1.10;;
11386;SDS011;5748;53.102;8.456;2023-03-16T02:22:36;1.20;;;1.10;;
11386;SDS011;5748;53.102;8.456;2023-03-16T02:25:06;1.10;;;1.00;;
11386;SDS011;5748;53.102;8.456;2023-03-16T02:27:36;1.03;;;1.00;;
11386;SDS011;5748;53.102;8.456;2023-03-16T02:30:12;1.20;;;1.10;;
11386;SDS011;5748;53.102;8.456;2023-03-16T02:32:41;1.20;;;1.10;;
11386;SDS011;5748;53.102;8.456;2023-03-16T02:35:09;0.80;;;0.80;;
11386;SDS011;5748;53.102;8.456;2023-03-16T02:37:38;1.20;;;1.10;;
11386;SDS011;5748;53.102;8.456;2023-03-16T02:40:15;1.20;;;1.10;;
11386;SDS011;5748;53.102;8.456;2023-03-16T02:42:48;1.60;;;1.10;;
11386;SDS011;5748;53.102;8.456;2023-03-16T02:45:21;1.10;;;1.00;;
11386;SDS011;5748;53.102;8.456;2023-03-16T02:47:50;1.00;;;0.83;;
11386;SDS011;5748;53.102;8.456;2023-03-16T02:50:20;1.00;;;0.90;;
11386;SDS011;5748;53.102;8.456;2023-03-16T02:52:47;2.80;;;2.20;;
11386;SDS011;5748;53.102;8.456;2023-03-16T02:55:14;3.40;;;2.67;;
11386;SDS011;5748;53.102;8.456;2023-03-16T02:57:41;3.17;;;2.40;;
11386;SDS011;5748;53.102;8.456;2023-03-16T03:00:08;2.97;;;1.90;;
11386;SDS011;5748;53.102;8.456;2023-03-16T03:02:42;1.40;;;1.30;;
11386;SDS011;5748;53.102;8.456;2023-03-16T03:07:53;1.37;;;1.20;;
11386;SDS011;5748;53.102;8.456;2023-03-16T03:10:20;2.43;;;1.30;;
11386;SDS011;5748;53.102;8.456;2023-03-16T03:12:47;1.77;;;1.23;;
11386;SDS011;5748;53.102;8.456;2023-03-16T03:15:20;1.10;;;1.00;;
11386;SDS011;5748;53.102;8.456;2023-03-16T03:17:49;1.30;;;1.20;;
11386;SDS011;5748;53.102;8.456;2023-03-16T03:20:16;1.23;;;1.13;;
11386;SDS011;5748;53.102;8.456;2023-03-16T03:22:44;1.30;;;1.00;;
11386;SDS011;5748;53.102;8.456;2023-03-16T03:31:34;1.43;;;1.00;;
11386;SDS011;5748;53.102;8.456;2023-03-16T03:34:02;1.30;;;1.20;;
11386;SDS011;5748;53.102;8.456;2023-03-16T03:36:30;0.87;;;0.87;;
11386;SDS011;5748;53.102;8.456;2023-03-16T03:38:58;1.10;;;1.00;;
11386;SDS011;5748;53.102;8.456;2023-03-16T03:41:41;1.67;;;1.10;;
11386;SDS011;5748;53.102;8.456;2023-03-16T03:44:08;1.60;;;1.20;;
11386;SDS011;5748;53.102;8.456;2023-03-16T03:49:16;1.13;;;1.03;;
11386;SDS011;5748;53.102;8.456;2023-03-16T03:51:43;1.33;;;1.10;;
11386;SDS011;5748;53.102;8.456;2023-03-16T03:54:11;1.70;;;1.10;;
11386;SDS011;5748;53.102;8.456;2023-03-16T03:56:37;1.20;;;1.10;;
11386;SDS011;5748;53.102;8.456;2023-03-16T03:59:04;1.37;;;1.10;;
11386;SDS011;5748;53.102;8.456;2023-03-16T04:01:31;1.47;;;1.20;;
11386;SDS011;5748;53.102;8.456;2023-03-16T04:04:04;1.47;;;1.20;;
11386;SDS011;5748;53.102;8.456;2023-03-16T04:06:33;1.37;;;1.23;;
11386;SDS011;5748;53.102;8.456;2023-03-16T04:08:59;1.30;;;1.20;;
11386;SDS011;5748;53.102;8.456;2023-03-16T04:11:26;1.30;;;1.20;;
11386;SDS011;5748;53.102;8.456;2023-03-16T04:13:53;1.10;;;1.03;;
11386;SDS011;5748;53.102;8.456;2023-03-16T04:16:20;1.30;;;1.20;;
11386;SDS011;5748;53.102;8.456;2023-03-16T04:21:47;1.50;;;1.30;;
11386;SDS011;5748;53.102;8.456;2023-03-16T04:24:14;1.60;;;1.30;;
11386;SDS011;5748;53.102;8.456;2023-03-16T04:26:41;1.30;;;1.20;;
11386;SDS011;5748;53.102;8.456;2023-03-16T04:29:20;1.63;;;1.40;;
11386;SDS011;5748;53.102;8.456;2023-03-16T04:31:49;1.97;;;1.30;;
11386;SDS011;5748;53.102;8.456;2023-03-16T04:34:18;1.50;;;1.40;;
11386;SDS011;5748;53.102;8.456;2023-03-16T04:37:00;2.47;;;1.40;;
11386;SDS011;5748;53.102;8.456;2023-03-16T04:39:27;1.73;;;1.63;;
11386;SDS011;5748;53.102;8.456;2023-03-16T04:41:54;2.13;;;1.50;;
11386;SDS011;5748;53.102;8.456;2023-03-16T04:44:23;1.80;;;1.40;;
11386;SDS011;5748;53.102;8.456;2023-03-16T04:46:50;1.70;;;1.60;;
11386;SDS011;5748;53.102;8.456;2023-03-16T04:49:17;1.50;;;1.33;;
11386;SDS011;5748;53.102;8.456;2023-03-16T04:51:44;1.63;;;1.50;;
11386;SDS011;5748;53.102;8.456;2023-03-16T04:54:25;1.80;;;1.60;;
11386;SDS011;5748;53.102;8.456;2023-03-16T04:56:52;1.70;;;1.50;;
11386;SDS011;5748;53.102;8.456;2023-03-16T04:59:19;1.73;;;1.30;;
11386;SDS011;5748;53.102;8.456;2023-03-16T05:01:47;1.87;;;1.50;;
11386;SDS011;5748;53.102;8.456;2023-03-16T05:04:14;2.40;;;1.60;;
11386;SDS011;5748;53.102;8.456;2023-03-16T05:06:41;1.67;;;1.50;;
11386;SDS011;5748;53.102;8.456;2023-03-16T05:09:09;1.50;;;1.40;;
11386;SDS011;5748;53.102;8.456;2023-03-16T05:11:43;1.57;;;1.30;;
11386;SDS011;5748;53.102;8.456;2023-03-16T05:17:14;1.60;;;1.50;;
11386;SDS011;5748;53.102;8.456;2023-03-16T05:19:41;2.80;;;2.25;;
11386;SDS011;5748;53.102;8.456;2023-03-16T05:22:14;2.23;;;2.00;;
11386;SDS011;5748;53.102;8.456;2023-03-16T05:24:41;3.53;;;2.10;;
11386;SDS011;5748;53.102;8.456;2023-03-16T05:27:10;2.27;;;1.90;;
11386;SDS011;5748;53.102;8.456;2023-03-16T05:29:37;2.13;;;1.73;;
11386;SDS011;5748;53.102;8.456;2023-03-16T05:32:04;1.93;;;1.73;;
11386;SDS011;5748;53.102;8.456;2023-03-16T05:34:32;1.60;;;1.50;;
11386;SDS011;5748;53.102;8.456;2023-03-16T05:36:59;1.77;;;1.53;;
11386;SDS011;5748;53.102;8.456;2023-03-16T05:39:26;1.70;;;1.40;;
11386;SDS011;5748;53.102;8.456;2023-03-16T05:41:55;2.50;;;1.70;;
11386;SDS011;5748;53.102;8.456;2023-03-16T05:44:23;1.70;;;1.50;;
11386;SDS011;5748;53.102;8.456;2023-03-16T05:46:50;1.63;;;1.50;;
11386;SDS011;5748;53.102;8.456;2023-03-16T05:49:18;1.77;;;1.60;;
11386;SDS011;5748;53.102;8.456;2023-03-16T05:51:45;1.87;;;1.70;;
11386;SDS011;5748;53.102;8.456;2023-03-16T05:54:12;2.20;;;1.60;;
11386;SDS011;5748;53.102;8.456;2023-03-16T05:56:39;1.80;;;1.60;;
11386;SDS011;5748;53.102;8.456;2023-03-16T05:59:06;2.07;;;1.60;;
11386;SDS011;5748;53.102;8.456;2023-03-16T06:01:37;1.67;;;1.57;;
11386;SDS011;5748;53.102;8.456;2023-03-16T06:04:05;2.13;;;1.70;;
11386;SDS011;5748;53.102;8.456;2023-03-16T06:06:32;1.77;;;1.47;;
11386;SDS011;5748;53.102;8.456;2023-03-16T06:09:00;2.03;;;1.50;;
11386;SDS011;5748;53.102;8.456;2023-03-16T06:11:27;1.70;;;1.60;;
11386;SDS011;5748;53.102;8.456;2023-03-16T06:13:56;2.27;;;1.50;;
11386;SDS011;5748;53.102;8.456;2023-03-16T06:16:23;1.90;;;1.50;;
11386;SDS011;5748;53.102;8.456;2023-03-16T06:18:52;1.90;;;1.70;;
11386;SDS011;5748;53.102;8.456;2023-03-16T06:21:20;1.53;;;1.30;;
11386;SDS011;5748;53.102;8.456;2023-03-16T06:23:47;1.50;;;1.40;;
11386;SDS011;5748;53.102;8.456;2023-03-16T06:26:15;1.70;;;1.47;;
11386;SDS011;5748;53.102;8.456;2023-03-16T06:28:42;1.70;;;1.57;;
11386;SDS011;5748;53.102;8.456;2023-03-16T06:31:09;1.90;;;1.60;;
11386;SDS011;5748;53.102;8.456;2023-03-16T06:33:36;1.67;;;1.57;;
11386;SDS011;5748;53.102;8.456;2023-03-16T06:36:04;1.67;;;1.43;;
11386;SDS011;5748;53.102;8.456;2023-03-16T06:38:32;1.70;;;1.53;;
11386;SDS011;5748;53.102;8.456;2023-03-16T06:40:59;1.60;;;1.50;;
11386;SDS011;5748;53.102;8.456;2023-03-16T06:43:26;1.50;;;1.40;;
11386;SDS011;5748;53.102;8.456;2023-03-16T06:45:53;2.00;;;1.40;;
11386;SDS011;5748;53.102;8.456;2023-03-16T06:48:20;1.53;;;1.40;;
11386;SDS011;5748;53.102;8.456;2023-03-16T06:50:47;1.90;;;1.30;;
11386;SDS011;5748;53.102;8.456;2023-03-16T06:53:15;1.80;;;1.60;;
11386;SDS011;5748;53.102;8.456;2023-03-16T06:55:42;2.10;;;1.60;;
11386;SDS011;5748;53.102;8.456;2023-03-16T06:58:09;2.00;;;1.50;;
11386;SDS011;5748;53.102;8.456;2023-03-16T07:00:36;2.00;;;1.27;;
11386;SDS011;5748;53.102;8.456;2023-03-16T07:03:03;1.63;;;1.17;;
11386;SDS011;5748;53.102;8.456;2023-03-16T07:05:30;1.60;;;1.20;;
11386;SDS011;5748;53.102;8.456;2023-03-16T07:07:57;1.63;;;1.33;;
11386;SDS011;5748;53.102;8.456;2023-03-16T07:10:27;2.67;;;1.43;;
11386;SDS011;5748;53.102;8.456;2023-03-16T07:12:54;1.23;;;1.13;;
11386;SDS011;5748;53.102;8.456;2023-03-16T07:15:21;1.80;;;1.60;;
11386;SDS011;5748;53.102;8.456;2023-03-16T07:21:08;1.83;;;1.50;;
11386;SDS011;5748;53.102;8.456;2023-03-16T07:23:35;1.40;;;1.30;;
11386;SDS011;5748;53.102;8.456;2023-03-16T07:26:03;1.53;;;1.40;;
11386;SDS011;5748;53.102;8.456;2023-03-16T07:28:32;1.83;;;1.30;;
11386;SDS011;5748;53.102;8.456;2023-03-16T07:30:59;2.37;;;1.43;;
11386;SDS011;5748;53.102;8.456;2023-03-16T07:33:26;1.77;;;1.33;;
11386;SDS011;5748;53.102;8.456;2023-03-16T07:35:53;1.67;;;1.30;;
11386;SDS011;5748;53.102;8.456;2023-03-16T07:38:20;2.00;;;1.60;;
11386;SDS011;5748;53.102;8.456;2023-03-16T07:40:47;1.93;;;1.50;;
11386;SDS011;5748;53.102;8.456;2023-03-16T07:43:17;1.80;;;1.40;;
11386;SDS011;5748;53.102;8.456;2023-03-16T07:45:46;2.43;;;1.70;;
11386;SDS011;5748;53.102;8.456;2023-03-16T07:48:14;1.60;;;1.40;;
11386;SDS011;5748;53.102;8.456;2023-03-16T07:50:41;2.23;;;1.50;;
11386;SDS011;5748;53.102;8.456;2023-03-16T07:53:08;1.53;;;1.30;;
11386;SDS011;5748;53.102;8.456;2023-03-16T07:55:35;1.90;;;1.60;;
11386;SDS011;5748;53.102;8.456;2023-03-16T07:58:03;2.43;;;1.40;;
11386;SDS011;5748;53.102;8.456;2023-03-16T08:00:31;1.80;;;1.40;;
11386;SDS011;5748;53.102;8.456;2023-03-16T08:02:59;1.80;;;1.40;;
11386;SDS011;5748;53.102;8.456;2023-03-16T08:05:26;1.77;;;1.40;;
11386;SDS011;5748;53.102;8.456;2023-03-16T08:07:53;1.33;;;1.23;;
11386;SDS011;5748;53.102;8.456;2023-03-16T08:10:21;2.07;;;1.60;;
11386;SDS011;5748;53.102;8.456;2023-03-16T08:12:48;1.40;;;1.30;;
11386;SDS011;5748;53.102;8.456;2023-03-16T08:15:15;1.67;;;1.50;;
11386;SDS011;5748;53.102;8.456;2023-03-16T08:17:44;1.90;;;1.60;;
11386;SDS011;5748;53.102;8.456;2023-03-16T08:20:12;2.03;;;1.50;;
11386;SDS011;5748;53.102;8.456;2023-03-16T08:22:39;2.23;;;1.70;;
11386;SDS011;5748;53.102;8.456;2023-03-16T08:25:11;2.23;;;1.40;;
11386;SDS011;5748;53.102;8.456;2023-03-16T08:27:39;1.70;;;1.50;;
11386;SDS011;5748;53.102;8.456;2023-03-16T08:30:07;2.17;;;1.70;;
11386;SDS011;5748;53.102;8.456;2023-03-16T08:32:38;2.00;;;1.60;;
11386;SDS011;5748;53.102;8.456;2023-03-16T08:35:08;2.97;;;2.00;;
11386;SDS011;5748;53.102;8.456;2023-03-16T08:37:37;2.00;;;1.70;;
11386;SDS011;5748;53.102;8.456;2023-03-16T08:40:05;1.40;;;1.30;;
11386;SDS011;5748;53.102;8.456;2023-03-16T08:42:37;2.27;;;1.50;;
11386;SDS011;5748;53.102;8.456;2023-03-16T08:45:06;2.07;;;1.40;;
11386;SDS011;5748;53.102;8.456;2023-03-16T08:47:34;2.23;;;1.53;;
11386;SDS011;5748;53.102;8.456;2023-03-16T08:50:02;2.30;;;1.77;;
11386;SDS011;5748;53.102;8.456;2023-03-16T08:52:32;1.90;;;1.60;;
11386;SDS011;5748;53.102;8.456;2023-03-16T08:55:00;1.77;;;1.63;;
11386;SDS011;5748;53.102;8.456;2023-03-16T08:57:28;2.43;;;1.70;;
11386;SDS011;5748;53.102;8.456;2023-03-16T08:59:59;2.93;;;1.80;;
11386;SDS011;5748;53.102;8.456;2023-03-16T09:02:32;2.37;;;1.60;;
11386;SDS011;5748;53.102;8.456;2023-03-16T09:05:02;2.30;;;1.57;;
11386;SDS011;5748;53.102;8.456;2023-03-16T09:07:31;3.10;;;1.80;;
11386;SDS011;5748;53.102;8.456;2023-03-16T09:10:00;3.10;;;2.10;;
11386;SDS011;5748;53.102;8.456;2023-03-16T09:12:29;1.93;;;1.70;;
11386;SDS011;5748;53.102;8.456;2023-03-16T09:14:57;2.37;;;2.17;;
11386;SDS011;5748;53.102;8.456;2023-03-16T09:17:24;2.37;;;1.97;;
11386;SDS011;5748;53.102;8.456;2023-03-16T09:19:52;2.40;;;1.87;;
11386;SDS011;5748;53.102;8.456;2023-03-16T09:22:19;2.40;;;1.90;;
11386;SDS011;5748;53.102;8.456;2023-03-16T09:24:49;1.90;;;1.70;;
11386;SDS011;5748;53.102;8.456;2023-03-16T09:27:16;2.10;;;1.83;;
11386;SDS011;5748;53.102;8.456;2023-03-16T09:29:44;3.00;;;2.30;;
11386;SDS011;5748;53.102;8.456;2023-03-16T09:32:12;2.67;;;2.00;;
11386;SDS011;5748;53.102;8.456;2023-03-16T09:34:40;2.27;;;1.73;;
11386;SDS011;5748;53.102;8.456;2023-03-16T09:37:07;2.10;;;1.80;;
11386;SDS011;5748;53.102;8.456;2023-03-16T09:39:35;3.07;;;2.50;;
11386;SDS011;5748;53.102;8.456;2023-03-16T09:42:05;2.13;;;1.93;;
11386;SDS011;5748;53.102;8.456;2023-03-16T09:44:41;2.20;;;2.00;;
11386;SDS011;5748;53.102;8.456;2023-03-16T09:47:21;2.17;;;1.97;;
11386;SDS011;5748;53.102;8.456;2023-03-16T09:49:54;2.13;;;1.87;;
11386;SDS011;5748;53.102;8.456;2023-03-16T09:52:24;2.20;;;2.00;;
11386;SDS011;5748;53.102;8.456;2023-03-16T09:55:01;2.83;;;1.90;;
11386;SDS011;5748;53.102;8.456;2023-03-16T09:57:38;2.90;;;2.07;;
11386;SDS011;5748;53.102;8.456;2023-03-16T10:00:13;2.10;;;1.90;;
11386;SDS011;5748;53.102;8.456;2023-03-16T10:02:45;2.47;;;2.20;;
11386;SDS011;5748;53.102;8.456;2023-03-16T10:05:28;3.20;;;2.10;;
11386;SDS011;5748;53.102;8.456;2023-03-16T10:08:00;2.40;;;2.10;;
11386;SDS011;5748;53.102;8.456;2023-03-16T10:10:43;2.43;;;2.00;;
11386;SDS011;5748;53.102;8.456;2023-03-16T10:13:43;2.43;;;1.80;;
11386;SDS011;5748;53.102;8.456;2023-03-16T10:16:15;2.93;;;2.00;;
11386;SDS011;5748;53.102;8.456;2023-03-16T10:18:46;2.47;;;1.60;;
11386;SDS011;5748;53.102;8.456;2023-03-16T10:21:16;2.97;;;1.87;;
11386;SDS011;5748;53.102;8.456;2023-03-16T10:23:45;1.70;;;1.60;;
11386;SDS011;5748;53.102;8.456;2023-03-16T10:26:15;1.83;;;1.73;;
11386;SDS011;5748;53.102;8.456;2023-03-16T10:28:48;1.70;;;1.60;;
11386;SDS011;5748;53.102;8.456;2023-03-16T10:31:17;2.70;;;1.90;;
11386;SDS011;5748;53.102;8.456;2023-03-16T10:33:47;1.80;;;1.70;;
11386;SDS011;5748;53.102;8.456;2023-03-16T10:36:23;2.00;;;1.80;;
11386;SDS011;5748;53.102;8.456;2023-03-16T10:38:56;2.30;;;1.70;;
11386;SDS011;5748;53.102;8.456;2023-03-16T10:41:27;2.07;;;1.70;;
11386;SDS011;5748;53.102;8.456;2023-03-16T10:43:57;2.23;;;1.97;;
11386;SDS011;5748;53.102;8.456;2023-03-16T10:46:34;2.00;;;1.80;;
11386;SDS011;5748;53.102;8.456;2023-03-16T10:49:05;1.63;;;1.53;;
11386;SDS011;5748;53.102;8.456;2023-03-16T10:51:45;2.30;;;2.10;;
11386;SDS011;5748;53.102;8.456;2023-03-16T10:54:14;2.17;;;1.90;;
11386;SDS011;5748;53.102;8.456;2023-03-16T10:56:47;2.10;;;1.90;;
11386;SDS011;5748;53.102;8.456;2023-03-16T10:59:23;1.70;;;1.60;;
11386;SDS011;5748;53.102;8.456;2023-03-16T11:02:13;3.20;;;1.90;;
11386;SDS011;5748;53.102;8.456;2023-03-16T11:04:43;2.43;;;1.93;;
11386;SDS011;5748;53.102;8.456;2023-03-16T11:07:14;2.13;;;1.63;;
11386;SDS011;5748;53.102;8.456;2023-03-16T11:09:43;2.10;;;1.90;;
11386;SDS011;5748;53.102;8.456;2023-03-16T11:12:12;2.23;;;2.00;;
11386;SDS011;5748;53.102;8.456;2023-03-16T11:14:45;2.10;;;1.90;;
11386;SDS011;5748;53.102;8.456;2023-03-16T11:17:13;2.10;;;1.87;;
11386;SDS011;5748;53.102;8.456;2023-03-16T11:19:48;1.70;;;1.60;;
11386;SDS011;5748;53.102;8.456;2023-03-16T11:22:20;1.93;;;1.73;;
11386;SDS011;5748;53.102;8.456;2023-03-16T11:24:49;2.00;;;1.77;;
11386;SDS011;5748;53.102;8.456;2023-03-16T11:27:39;1.90;;;1.70;;
11386;SDS011;5748;53.102;8.456;2023-03-16T11:30:14;1.80;;;1.50;;
11386;SDS011;5748;53.102;8.456;2023-03-16T11:32:47;1.90;;;1.70;;
11386;SDS011;5748;53.102;8.456;2023-03-16T11:35:17;2.10;;;1.90;;
11386;SDS011;5748;53.102;8.456;2023-03-16T11:37:50;1.90;;;1.60;;
11386;SDS011;5748;53.102;8.456;2023-03-16T11:40:36;1.80;;;1.70;;
11386;SDS011;5748;53.102;8.456;2023-03-16T11:43:17;2.00;;;1.80;;
11386;SDS011;5748;53.102;8.456;2023-03-16T11:46:16;1.70;;;1.60;;
11386;SDS011;5748;53.102;8.456;2023-03-16T11:48:50;2.30;;;1.90;;
11386;SDS011;5748;53.102;8.456;2023-03-16T11:51:31;1.80;;;1.67;;
11386;SDS011;5748;53.102;8.456;2023-03-16T11:54:10;2.07;;;1.40;;
11386;SDS011;5748;53.102;8.456;2023-03-16T11:56:58;2.33;;;1.70;;
11386;SDS011;5748;53.102;8.456;2023-03-16T11:59:42;1.70;;;1.60;;
11386;SDS011;5748;53.102;8.456;2023-03-16T12:02:38;2.43;;;2.10;;
11386;SDS011;5748;53.102;8.456;2023-03-16T12:05:21;2.50;;;2.10;;
11386;SDS011;5748;53.102;8.456;2023-03-16T12:08:10;2.20;;;2.00;;
11386;SDS011;5748;53.102;8.456;2023-03-16T12:10:53;1.77;;;1.67;;
11386;SDS011;5748;53.102;8.456;2023-03-16T12:13:29;2.10;;;1.90;;
11386;SDS011;5748;53.102;8.456;2023-03-16T12:16:08;2.03;;;1.83;;
11386;SDS011;5748;53.102;8.456;2023-03-16T12:18:49;2.33;;;2.00;;
11386;SDS011;5748;53.102;8.456;2023-03-16T12:21:20;2.30;;;2.10;;
11386;SDS011;5748;53.102;8.456;2023-03-16T12:23:52;2.10;;;1.90;;
11386;SDS011;5748;53.102;8.456;2023-03-16T12:26:23;2.10;;;1.87;;
11386;SDS011;5748;53.102;8.456;2023-03-16T12:31:45;2.43;;;2.23;;
11386;SDS011;5748;53.102;8.456;2023-03-16T12:34:23;2.43;;;2.23;;
11386;SDS011;5748;53.102;8.456;2023-03-16T12:37:01;2.43;;;2.00;;
11386;SDS011;5748;53.102;8.456;2023-03-16T12:42:50;2.27;;;1.93;;
11386;SDS011;5748;53.102;8.456;2023-03-16T12:48:08;2.40;;;2.20;;
11386;SDS011;5748;53.102;8.456;2023-03-16T12:50:50;1.93;;;1.60;;
11386;SDS011;5748;53.102;8.456;2023-03-16T12:56:10;2.30;;;2.10;;
11386;SDS011;5748;53.102;8.456;2023-03-16T13:01:52;2.50;;;2.10;;
11386;SDS011;5748;53.102;8.456;2023-03-16T13:04:28;2.30;;;2.10;;
11386;SDS011;5748;53.102;8.456;2023-03-16T13:07:04;2.60;;;2.03;;
11386;SDS011;5748;53.102;8.456;2023-03-16T13:09:39;2.33;;;1.90;;
11386;SDS011;5748;53.102;8.456;2023-03-16T13:12:20;2.63;;;2.10;;
11386;SDS011;5748;53.102;8.456;2023-03-16T13:14:50;2.93;;;2.23;;
11386;SDS011;5748;53.102;8.456;2023-03-16T13:17:28;2.37;;;1.90;;
11386;SDS011;5748;53.102;8.456;2023-03-16T13:20:22;2.23;;;2.03;;
11386;SDS011;5748;53.102;8.456;2023-03-16T13:23:07;2.30;;;2.00;;
11386;SDS011;5748;53.102;8.456;2023-03-16T13:26:00;3.80;;;2.87;;
11386;SDS011;5748;53.102;8.456;2023-03-16T13:28:44;2.30;;;2.10;;
11386;SDS011;5748;53.102;8.456;2023-03-16T13:34:21;2.67;;;2.00;;
11386;SDS011;5748;53.102;8.456;2023-03-16T13:37:02;2.00;;;1.80;;
11386;SDS011;5748;53.102;8.456;2023-03-16T13:39:50;3.50;;;2.77;;
11386;SDS011;5748;53.102;8.456;2023-03-16T13:42:19;2.40;;;2.20;;
11386;SDS011;5748;53.102;8.456;2023-03-16T13:44:51;2.40;;;2.20;;
11386;SDS011;5748;53.102;8.456;2023-03-16T13:47:21;3.13;;;2.47;;
11386;SDS011;5748;53.102;8.456;2023-03-16T13:49:54;2.40;;;2.00;;
11386;SDS011;5748;53.102;8.456;2023-03-16T13:52:23;2.33;;;2.13;;
11386;SDS011;5748;53.102;8.456;2023-03-16T13:54:55;3.93;;;2.70;;
11386;SDS011;5748;53.102;8.456;2023-03-16T13:57:24;2.83;;;2.13;;
11386;SDS011;5748;53.102;8.456;2023-03-16T13:59:59;2.23;;;2.03;;
11386;SDS011;5748;53.102;8.456;2023-03-16T14:02:29;2.53;;;2.13;;
11386;SDS011;5748;53.102;8.456;2023-03-16T14:05:08;2.40;;;2.10;;
11386;SDS011;5748;53.102;8.456;2023-03-16T14:07:37;2.30;;;2.10;;
11386;SDS011;5748;53.102;8.456;2023-03-16T14:10:07;1.90;;;1.80;;
11386;SDS011;5748;53.102;8.456;2023-03-16T14:12:48;1.90;;;1.67;;
11386;SDS011;5748;53.102;8.456;2023-03-16T14:15:17;2.20;;;2.00;;
11386;SDS011;5748;53.102;8.456;2023-03-16T14:17:44;2.30;;;2.10;;
11386;SDS011;5748;53.102;8.456;2023-03-16T14:20:15;2.77;;;2.57;;
11386;SDS011;5748;53.102;8.456;2023-03-16T14:22:44;2.50;;;2.30;;
11386;SDS011;5748;53.102;8.456;2023-03-16T14:25:16;2.73;;;2.20;;
11386;SDS011;5748;53.102;8.456;2023-03-16T14:27:47;2.30;;;1.87;;
11386;SDS011;5748;53.102;8.456;2023-03-16T14:30:26;2.53;;;2.00;;
11386;SDS011;5748;53.102;8.456;2023-03-16T14:32:55;2.10;;;1.90;;
11386;SDS011;5748;53.102;8.456;2023-03-16T14:35:25;2.13;;;1.93;;
11386;SDS011;5748;53.102;8.456;2023-03-16T14:37:55;2.10;;;1.90;;
11386;SDS011;5748;53.102;8.456;2023-03-16T14:40:25;2.27;;;1.80;;
11386;SDS011;5748;53.102;8.456;2023-03-16T14:42:55;2.93;;;1.90;;
11386;SDS011;5748;53.102;8.456;2023-03-16T14:45:27;2.17;;;1.97;;
11386;SDS011;5748;53.102;8.456;2023-03-16T14:48:02;1.97;;;1.80;;
11386;SDS011;5748;53.102;8.456;2023-03-16T14:50:32;2.43;;;2.03;;
11386;SDS011;5748;53.102;8.456;2023-03-16T14:52:59;2.07;;;1.87;;
11386;SDS011;5748;53.102;8.456;2023-03-16T14:55:30;1.90;;;1.70;;
11386;SDS011;5748;53.102;8.456;2023-03-16T14:57:57;2.00;;;1.73;;
11386;SDS011;5748;53.102;8.456;2023-03-16T15:00:24;2.40;;;2.00;;
11386;SDS011;5748;53.102;8.456;2023-03-16T15:02:53;1.80;;;1.70;;
11386;SDS011;5748;53.102;8.456;2023-03-16T15:05:29;1.70;;;1.60;;
11386;SDS011;5748;53.102;8.456;2023-03-16T15:07:59;2.33;;;2.00;;
11386;SDS011;5748;53.102;8.456;2023-03-16T15:10:29;1.97;;;1.77;;
11386;SDS011;5748;53.102;8.456;2023-03-16T15:12:58;1.93;;;1.70;;
11386;SDS011;5748;53.102;8.456;2023-03-16T15:15:37;1.60;;;1.50;;
11386;SDS011;5748;53.102;8.456;2023-03-16T15:18:07;1.60;;;1.37;;
11386;SDS011;5748;53.102;8.456;2023-03-16T15:20:37;2.07;;;1.50;;
11386;SDS011;5748;53.102;8.456;2023-03-16T15:23:08;1.57;;;1.40;;
11386;SDS011;5748;53.102;8.456;2023-03-16T15:25:40;1.90;;;1.47;;
11386;SDS011;5748;53.102;8.456;2023-03-16T15:28:10;2.20;;;2.00;;
11386;SDS011;5748;53.102;8.456;2023-03-16T15:30:41;2.17;;;1.90;;
11386;SDS011;5748;53.102;8.456;2023-03-16T15:33:11;1.90;;;1.60;;
11386;SDS011;5748;53.102;8.456;2023-03-16T15:35:39;1.60;;;1.50;;
11386;SDS011;5748;53.102;8.456;2023-03-16T15:38:10;1.77;;;1.40;;
11386;SDS011;5748;53.102;8.456;2023-03-16T15:40:43;1.80;;;1.70;;
11386;SDS011;5748;53.102;8.456;2023-03-16T15:43:12;1.60;;;1.50;;
11386;SDS011;5748;53.102;8.456;2023-03-16T15:45:42;1.50;;;1.40;;
11386;SDS011;5748;53.102;8.456;2023-03-16T15:48:10;2.33;;;1.60;;
11386;SDS011;5748;53.102;8.456;2023-03-16T15:50:37;1.70;;;1.60;;
11386;SDS011;5748;53.102;8.456;2023-03-16T15:53:08;1.60;;;1.40;;
11386;SDS011;5748;53.102;8.456;2023-03-16T15:55:50;1.83;;;1.70;;
11386;SDS011;5748;53.102;8.456;2023-03-16T15:58:23;1.93;;;1.73;;
11386;SDS011;5748;53.102;8.456;2023-03-16T16:00:53;2.27;;;1.70;;
11386;SDS011;5748;53.102;8.456;2023-03-16T16:03:21;1.80;;;1.50;;